Terminal Aerodrome Forecast
Issued by NWS

Home | Current Version | Previous Version | Graphics & Text | Print | Product List | Glossary On
Versions: 1 2 3 4 5 6 7 8 9 10 11 12 13
937
FTUS43 KBIS 150527
TAFDIK
TAF
KDIK 150527Z 1506/1606 24009KT P6SM FEW060 FEW250
     FM150900 24010KT P6SM SCT080 SCT140 WS020/29030KT
     FM151300 27011G19KT P6SM FEW080 SCT200 WS020/30035KT
     FM151600 29020G30KT P6SM SKC
     FM160100 26009KT P6SM SKC=

USA.gov is the U.S. government's official web portal to all federal, state and local government web resources and services.